CheckWX is a tool to help pilots better visualize weather data.  It is not intended as a substitute for an official pre-flight weather briefing.

15:32:37 UTC

KPIE TAF
St Pete-Clearwater International Airport
Clearwater, Florida, USA
KPIE 291720Z 2918/3018 14008KT P6SM VCTS BKN035CB FM291900 24007KT P6SM VCTS BKN040CB FM292100 28007KT P6SM SCT040 BKN130 FM300100 VRB04KT P6SM FEW040 SCT130 BKN250 FM301500 33006KT P6SM FEW040 SCT250

May-29@
18:00 UTC

May-29 @ 18:00 UTC

May-29@
19:00 UTC

May-29 @ 19:00 UTC

TAF KPIE 291720Z 2918/3018 14008KT P6SM VCTS BKN035CB

Expired

Wind
  • 140° at 8 KTS
Conditions
Area Thunderstorm
Cloud Levels
  • Broken at 3,500' AGL

May-29@
19:00 UTC

May-29 @ 19:00 UTC

May-29@
21:00 UTC

May-29 @ 21:00 UTC

FM291900 24007KT P6SM VCTS BKN040CB

Expired

Wind
  • 240° at 7 KTS
Conditions
Area Thunderstorm
Cloud Levels
  • Broken at 4,000' AGL

May-29@
21:00 UTC

May-29 @ 21:00 UTC

May-30@
01:00 UTC

May-30 @ 01:00 UTC

FM292100 28007KT P6SM SCT040 BKN130

Expired

Wind
  • 280° at 7 KTS
Cloud Levels
  • Scattered at 4,000' AGL
  • Broken at 13,000' AGL

May-30@
01:00 UTC

May-30 @ 01:00 UTC

May-30@
15:00 UTC

May-30 @ 15:00 UTC

FM300100 VRB04KT P6SM FEW040 SCT130 BKN250

Expired

Wind
  • Variable at 4 KTS
Cloud Levels
  • Few at 4,000' AGL
  • Scattered at 13,000' AGL
  • Broken at 25,000' AGL

May-30@
15:00 UTC

May-30 @ 15:00 UTC

May-30@
18:00 UTC

May-30 @ 18:00 UTC

FM301500 33006KT P6SM FEW040 SCT250

From

From Standard forecast or significant change

Wind
  • 330° at 6 KTS
Cloud Levels
  • Few at 4,000' AGL
  • Scattered at 25,000' AGL